METAR Data
IDs: Format: Raw Decoded Include TAF

Data at: 2314 UTC 25 Oct 2021

PAGY 252253Z AUTO 10SM OVC075 07/M02 A2914 RMK AO2 SLP868 T00721022 TSNO $
PAGY 252153Z AUTO 03007G15KT 10SM OVC085 07/M02 A2914 RMK AO2 SLP869 T00721022 TSNO $
PAGY 252053Z AUTO 02008KT 10SM OVC090 07/M02 A2915 RMK AO2 SLP871 T00671022 55004 TSNO $
PAGY 251953Z AUTO 36005KT 10SM BKN090 07/M02 A2914 RMK AO2 SLP868 T00671022 TSNO $
PAGY 251853Z AUTO 35010G17KT 290V050 10SM CLR 06/M02 A2915 RMK AO2 SLP872 T00611022 TSNO $
PAGY 251753Z AUTO 00000KT 10SM CLR 06/M03 A2916 RMK AO2 SLP875 T00561028 10067 20050 56007 TSNO $
PAGY 251653Z AUTO 05007G23KT 10SM CLR 06/M03 A2917 RMK AO2 SLP877 T00561028 TSNO $
PAGY 251553Z AUTO 02009KT 10SM CLR 05/M03 A2917 RMK AO2 SLP879 T00501028 TSNO $
PAGY 251453Z AUTO 03012G22KT 10SM CLR 06/M03 A2918 RMK AO2 PK WND 04027/1437 SLP882 T00561028 56009 TSNO $
PAGY 251353Z AUTO 04016G23KT 360V060 10SM CLR 06/M02 A2919 RMK AO2 SLP885 T00561022 TSNO $
PAGY 251253Z AUTO 04015G21KT 10SM CLR 06/M02 A2919 RMK AO2 PK WND 04026/1155 SLP886 T00561022 TSNO $
PAGY 251153Z AUTO 04015G24KT 10SM CLR 07/M02 A2921 RMK AO2 PK WND 03027/1108 SLP891 T00671022 10083 20061 56006 TSNO $
PAGY 251053Z AUTO 02014G23KT 10SM CLR 07/M02 A2922 RMK AO2 SLP895 T00671022 TSNO $
PAGY 250953Z AUTO 03015G26KT 10SM CLR 07/M02 A2921 RMK AO2 PK WND 05026/0945 SLP892 T00721022 TSNO $
PAGY 250853Z AUTO 03014G28KT 10SM CLR 07/M02 A2923 RMK AO2 PK WND 04028/0851 SLP897 T00721022 401000011 58010 TSNO $
PAGY 250753Z AUTO 03014G27KT 10SM CLR 07/M02 A2923 RMK AO2 PK WND 03027/0744 SLP899 T00721022 TSNO $
PAGY 250653Z AUTO 02013KT 10SM CLR 08/M02 A2925 RMK AO2 SLP906 T00781017 TSNO $
PAGY 250553Z AUTO 03012G23KT 10SM CLR 08/M02 A2926 RMK AO2 SLP908 T00831022 10094 20078 58007 TSNO $
PAGY 250453Z AUTO 03014G19KT 10SM CLR 08/M02 A2926 RMK AO2 SLP909 T00831022 TSNO $
PAGY 250353Z AUTO 02013G18KT 10SM CLR 08/M02 A2928 RMK AO2 SLP916 T00831022 TSNO $
PAGY 250253Z AUTO 03014G20KT 10SM CLR 08/M02 A2928 RMK AO2 SLP915 T00831017 58021 TSNO $
PAGY 250153Z AUTO 02014G19KT 10SM CLR 08/M02 A2931 RMK AO2 SLP924 T00831017 TSNO $
PAGY 250053Z AUTO 02009G16KT 10SM CLR 08/M01 A2932 RMK AO2 SLP930 T00831006 TSNO $
PAGY 242353Z AUTO 02008KT 10SM CLR 09/M01 A2934 RMK AO2 SLP936 T00941006 10100 20011 58022 TSNO $
PAGY 242253Z AUTO 01010KT 10SM CLR 09/01 A2936 RMK AO2 SLP943 T00940006 TSNO $
PAGY 242153Z AUTO VRB04KT 10SM CLR 09/02 A2939 RMK AO2 SLP951 T00940017 TSNO $
PAGY 242053Z AUTO VRB04KT 10SM CLR 07/03 A2941 RMK AO2 SLP958 T00670033 58027 TSNO $
PAGY 241953Z AUTO 00000KT 10SM CLR 05/03 A2943 RMK AO2 SLP967 T00500033 TSNO $
PAGY 241853Z AUTO 05003KT 10SM CLR 02/02 A2947 RMK AO2 SLP978 T00170017 TSNO $
PAGY 241753Z AUTO 00000KT 5SM BR CLR 02/01 A2949 RMK AO2 SLP985 T00170011 10039 20011 58008 TSNO $
PAGY 241653Z AUTO 03003KT 10SM CLR 01/01 A2950 RMK AO2 SLP989 T00110011 TSNO $
PAGY 241553Z AUTO 03003KT 10SM OVC065 02/02 A2951 RMK AO2 SLP992 T00170017 TSNO $
PAGY 241453Z AUTO 05005KT 10SM SCT070 02/01 A2951 RMK AO2 SLP993 T00170011 55002 TSNO $
PAGY 241443Z AUTO 03006KT 10SM FEW001 SCT070 02/01 A2951 RMK AO2 T00170011 TSNO $
PAGY 241353Z AUTO 06004KT 10SM CLR 02/02 A2950 RMK AO2 SLP989 T00220017 TSNO $
PAGY 241253Z AUTO 03004KT 10SM OVC080 03/03 A2951 RMK AO2 SLP992 T00330028 TSNO $
PAGY 241153Z AUTO 03003KT 10SM OVC075 04/03 A2951 RMK AO2 SLP995 60002 70008 T00390033 10056 20039 50005 TSNO $
PAGY 241135Z AUTO 03004KT 10SM SCT010 OVC075 04/03 A2951 RMK AO2 T00390033 TSNO $
PAGY 241126Z AUTO 04004KT 10SM BKN009 OVC080 04/03 A2952 RMK AO2 T00390033 TSNO $